sensor_id;sensor_type;location;lat;lon;timestamp;temperature;humidity
14154;DHT22;7157;53.144;7.570;2023-08-30T00:00:53;16.22;95.01
14154;DHT22;7157;53.144;7.570;2023-08-30T00:10:56;16.21;95.01
14154;DHT22;7157;53.144;7.570;2023-08-30T00:21:01;16.08;95.10
14154;DHT22;7157;53.144;7.570;2023-08-30T00:31:05;15.90;95.56
14154;DHT22;7157;53.144;7.570;2023-08-30T00:41:09;15.87;95.60
14154;DHT22;7157;53.144;7.570;2023-08-30T00:51:12;15.74;95.97
14154;DHT22;7157;53.144;7.570;2023-08-30T01:01:17;15.60;96.55
14154;DHT22;7157;53.144;7.570;2023-08-30T01:11:24;15.58;96.57
14154;DHT22;7157;53.144;7.570;2023-08-30T01:21:39;15.56;96.47
14154;DHT22;7157;53.144;7.570;2023-08-30T01:31:48;15.46;96.33
14154;DHT22;7157;53.144;7.570;2023-08-30T01:41:52;15.33;96.67
14154;DHT22;7157;53.144;7.570;2023-08-30T01:52:01;15.07;97.75
14154;DHT22;7157;53.144;7.570;2023-08-30T02:02:04;14.94;98.71
14154;DHT22;7157;53.144;7.570;2023-08-30T02:12:13;14.95;98.37
14154;DHT22;7157;53.144;7.570;2023-08-30T02:22:17;14.89;98.32
14154;DHT22;7157;53.144;7.570;2023-08-30T02:32:21;14.71;98.89
14154;DHT22;7157;53.144;7.570;2023-08-30T02:42:24;14.67;99.12
14154;DHT22;7157;53.144;7.570;2023-08-30T02:52:28;14.63;99.15
14154;DHT22;7157;53.144;7.570;2023-08-30T03:02:31;14.54;99.09
14154;DHT22;7157;53.144;7.570;2023-08-30T03:12:35;14.42;99.71
14154;DHT22;7157;53.144;7.570;2023-08-30T03:22:38;14.34;99.98
14154;DHT22;7157;53.144;7.570;2023-08-30T03:32:42;14.25;100.39
14154;DHT22;7157;53.144;7.570;2023-08-30T03:42:45;14.19;100.31
14154;DHT22;7157;53.144;7.570;2023-08-30T03:52:49;14.13;100.48
14154;DHT22;7157;53.144;7.570;2023-08-30T04:02:52;14.03;100.54
14154;DHT22;7157;53.144;7.570;2023-08-30T04:12:56;13.99;100.64
14154;DHT22;7157;53.144;7.570;2023-08-30T04:22:59;14.05;100.07
14154;DHT22;7157;53.144;7.570;2023-08-30T04:33:04;13.90;100.36
14154;DHT22;7157;53.144;7.570;2023-08-30T04:43:07;13.85;100.24
14154;DHT22;7157;53.144;7.570;2023-08-30T04:53:11;13.68;100.60
14154;DHT22;7157;53.144;7.570;2023-08-30T05:03:14;13.58;100.63
14154;DHT22;7157;53.144;7.570;2023-08-30T05:13:18;13.65;100.32
14154;DHT22;7157;53.144;7.570;2023-08-30T05:23:21;13.73;100.00
14154;DHT22;7157;53.144;7.570;2023-08-30T05:33:25;13.59;100.18
14154;DHT22;7157;53.144;7.570;2023-08-30T05:43:28;13.65;100.19
14154;DHT22;7157;53.144;7.570;2023-08-30T05:53:32;13.65;100.19
14154;DHT22;7157;53.144;7.570;2023-08-30T06:03:35;13.86;99.58
14154;DHT22;7157;53.144;7.570;2023-08-30T06:13:39;13.99;99.43
14154;DHT22;7157;53.144;7.570;2023-08-30T06:23:42;14.04;99.22
14154;DHT22;7157;53.144;7.570;2023-08-30T06:33:46;14.36;98.91
14154;DHT22;7157;53.144;7.570;2023-08-30T06:43:49;14.84;97.61
14154;DHT22;7157;53.144;7.570;2023-08-30T06:53:53;14.94;96.71
14154;DHT22;7157;53.144;7.570;2023-08-30T07:04:02;15.13;96.49
14154;DHT22;7157;53.144;7.570;2023-08-30T07:14:06;15.17;95.99
14154;DHT22;7157;53.144;7.570;2023-08-30T07:24:09;15.26;95.39
14154;DHT22;7157;53.144;7.570;2023-08-30T07:34:13;15.56;94.31
14154;DHT22;7157;53.144;7.570;2023-08-30T07:44:16;15.67;93.74
14154;DHT22;7157;53.144;7.570;2023-08-30T07:54:22;15.75;92.87
14154;DHT22;7157;53.144;7.570;2023-08-30T08:04:25;16.22;91.71
14154;DHT22;7157;53.144;7.570;2023-08-30T08:14:29;16.47;90.92
14154;DHT22;7157;53.144;7.570;2023-08-30T08:24:32;16.77;88.81
14154;DHT22;7157;53.144;7.570;2023-08-30T08:34:36;17.62;87.02
14154;DHT22;7157;53.144;7.570;2023-08-30T08:44:40;18.23;81.57
14154;DHT22;7157;53.144;7.570;2023-08-30T08:54:45;18.86;78.86
14154;DHT22;7157;53.144;7.570;2023-08-30T09:04:48;19.17;74.82
14154;DHT22;7157;53.144;7.570;2023-08-30T09:14:56;19.02;73.72
14154;DHT22;7157;53.144;7.570;2023-08-30T09:24:59;19.76;70.33
14154;DHT22;7157;53.144;7.570;2023-08-30T09:35:05;20.55;68.88
14154;DHT22;7157;53.144;7.570;2023-08-30T09:45:17;20.42;65.31
14154;DHT22;7157;53.144;7.570;2023-08-30T09:55:22;20.22;66.78
14154;DHT22;7157;53.144;7.570;2023-08-30T10:05:26;19.86;65.40
14154;DHT22;7157;53.144;7.570;2023-08-30T10:15:33;19.71;65.67
14154;DHT22;7157;53.144;7.570;2023-08-30T10:25:37;19.51;66.24
14154;DHT22;7157;53.144;7.570;2023-08-30T10:35:48;19.09;67.40
14154;DHT22;7157;53.144;7.570;2023-08-30T10:45:59;19.05;67.72
14154;DHT22;7157;53.144;7.570;2023-08-30T10:56:12;18.81;68.95
14154;DHT22;7157;53.144;7.570;2023-08-30T11:06:18;18.65;70.29
14154;DHT22;7157;53.144;7.570;2023-08-30T11:16:25;18.95;72.11
14154;DHT22;7157;53.144;7.570;2023-08-30T11:26:28;18.69;73.48
14154;DHT22;7157;53.144;7.570;2023-08-30T11:36:35;18.34;73.68
14154;DHT22;7157;53.144;7.570;2023-08-30T11:46:38;18.35;73.98
14154;DHT22;7157;53.144;7.570;2023-08-30T11:56:42;18.46;74.22
14154;DHT22;7157;53.144;7.570;2023-08-30T12:06:51;18.97;76.71
14154;DHT22;7157;53.144;7.570;2023-08-30T12:16:59;18.51;81.52
14154;DHT22;7157;53.144;7.570;2023-08-30T12:27:03;18.67;80.49
14154;DHT22;7157;53.144;7.570;2023-08-30T12:37:07;18.61;81.07
14154;DHT22;7157;53.144;7.570;2023-08-30T12:47:10;18.00;82.43
14154;DHT22;7157;53.144;7.570;2023-08-30T12:57:16;17.40;87.08
14154;DHT22;7157;53.144;7.570;2023-08-30T13:07:19;17.01;90.36
14154;DHT22;7157;53.144;7.570;2023-08-30T13:17:23;16.76;92.18
14154;DHT22;7157;53.144;7.570;2023-08-30T13:27:26;16.65;93.93
14154;DHT22;7157;53.144;7.570;2023-08-30T13:37:31;16.76;94.84
14154;DHT22;7157;53.144;7.570;2023-08-30T13:47:33;17.13;95.86
14154;DHT22;7157;53.144;7.570;2023-08-30T13:57:38;18.03;95.07
14154;DHT22;7157;53.144;7.570;2023-08-30T14:07:40;18.38;94.46
14154;DHT22;7157;53.144;7.570;2023-08-30T14:17:44;18.17;95.07
14154;DHT22;7157;53.144;7.570;2023-08-30T14:27:47;17.87;95.53
14154;DHT22;7157;53.144;7.570;2023-08-30T14:37:51;17.55;96.73
14154;DHT22;7157;53.144;7.570;2023-08-30T14:47:54;17.23;97.78
14154;DHT22;7157;53.144;7.570;2023-08-30T14:57:58;16.85;100.09
14154;DHT22;7157;53.144;7.570;2023-08-30T15:08:01;17.24;100.28
14154;DHT22;7157;53.144;7.570;2023-08-30T15:18:05;17.59;99.61
14154;DHT22;7157;53.144;7.570;2023-08-30T15:28:08;17.55;99.78
14154;DHT22;7157;53.144;7.570;2023-08-30T15:38:12;17.59;99.87
14154;DHT22;7157;53.144;7.570;2023-08-30T15:48:15;17.53;99.49
14154;DHT22;7157;53.144;7.570;2023-08-30T15:58:20;17.69;99.41
14154;DHT22;7157;53.144;7.570;2023-08-30T16:08:22;17.63;99.11
14154;DHT22;7157;53.144;7.570;2023-08-30T16:18:30;16.42;99.55
14154;DHT22;7157;53.144;7.570;2023-08-30T16:28:33;16.08;100.39
14154;DHT22;7157;53.144;7.570;2023-08-30T16:38:39;16.13;100.59
14154;DHT22;7157;53.144;7.570;2023-08-30T16:48:42;16.29;100.93
14154;DHT22;7157;53.144;7.570;2023-08-30T16:58:46;16.26;101.02
14154;DHT22;7157;53.144;7.570;2023-08-30T17:08:49;16.26;100.90
14154;DHT22;7157;53.144;7.570;2023-08-30T17:18:53;16.02;100.72
14154;DHT22;7157;53.144;7.570;2023-08-30T17:28:56;16.14;100.72
14154;DHT22;7157;53.144;7.570;2023-08-30T17:39:00;16.20;100.70
14154;DHT22;7157;53.144;7.570;2023-08-30T17:49:02;16.22;100.84
14154;DHT22;7157;53.144;7.570;2023-08-30T17:59:06;16.03;100.84
14154;DHT22;7157;53.144;7.570;2023-08-30T18:09:09;15.92;100.68
14154;DHT22;7157;53.144;7.570;2023-08-30T18:19:17;15.90;100.79
14154;DHT22;7157;53.144;7.570;2023-08-30T18:29:20;15.80;101.07
14154;DHT22;7157;53.144;7.570;2023-08-30T18:39:26;15.71;101.06
14154;DHT22;7157;53.144;7.570;2023-08-30T18:49:29;15.56;101.54
14154;DHT22;7157;53.144;7.570;2023-08-30T18:59:33;15.62;101.43
14154;DHT22;7157;53.144;7.570;2023-08-30T19:09:36;15.60;101.51
14154;DHT22;7157;53.144;7.570;2023-08-30T19:19:41;15.63;101.89
14154;DHT22;7157;53.144;7.570;2023-08-30T19:29:43;15.56;102.11
14154;DHT22;7157;53.144;7.570;2023-08-30T19:39:49;15.58;102.05
14154;DHT22;7157;53.144;7.570;2023-08-30T19:49:52;15.58;102.15
14154;DHT22;7157;53.144;7.570;2023-08-30T19:59:56;15.45;102.37
14154;DHT22;7157;53.144;7.570;2023-08-30T20:09:58;15.44;102.47
14154;DHT22;7157;53.144;7.570;2023-08-30T20:20:03;15.36;101.37
14154;DHT22;7157;53.144;7.570;2023-08-30T20:30:09;15.13;99.96
14154;DHT22;7157;53.144;7.570;2023-08-30T20:40:13;14.85;99.23
14154;DHT22;7157;53.144;7.570;2023-08-30T20:50:16;14.62;98.46
14154;DHT22;7157;53.144;7.570;2023-08-30T21:00:20;14.42;97.78
14154;DHT22;7157;53.144;7.570;2023-08-30T21:10:23;14.20;97.31
14154;DHT22;7157;53.144;7.570;2023-08-30T21:20:27;13.99;97.54
14154;DHT22;7157;53.144;7.570;2023-08-30T21:30:30;13.90;98.05
14154;DHT22;7157;53.144;7.570;2023-08-30T21:40:36;13.88;98.39
14154;DHT22;7157;53.144;7.570;2023-08-30T21:50:39;13.80;99.13
14154;DHT22;7157;53.144;7.570;2023-08-30T22:00:43;13.75;99.33
14154;DHT22;7157;53.144;7.570;2023-08-30T22:10:45;13.68;99.76
14154;DHT22;7157;53.144;7.570;2023-08-30T22:20:49;13.69;100.06
14154;DHT22;7157;53.144;7.570;2023-08-30T22:30:53;13.60;100.53
14154;DHT22;7157;53.144;7.570;2023-08-30T22:40:57;13.56;100.54
14154;DHT22;7157;53.144;7.570;2023-08-30T22:51:01;13.44;100.82
14154;DHT22;7157;53.144;7.570;2023-08-30T23:01:07;13.30;100.59
14154;DHT22;7157;53.144;7.570;2023-08-30T23:11:10;13.16;100.81
14154;DHT22;7157;53.144;7.570;2023-08-30T23:21:14;12.93;100.91
14154;DHT22;7157;53.144;7.570;2023-08-30T23:31:17;12.97;100.83
14154;DHT22;7157;53.144;7.570;2023-08-30T23:41:22;12.88;100.73
14154;DHT22;7157;53.144;7.570;2023-08-30T23:51:24;12.86;100.78
